Terminal Aerodrome Forecast
Issued by NWS

Home | Current Version | Previous Version | Text Only | Print | Product List | Glossary On
Versions: 1 2 3 4 5 6 7 8 9 10 11 12 13 14 15 16 17 18
000
FTUS43 KICT 271725
TAFHUT
TAF
KHUT 271725Z 2718/2818 13008KT P6SM SCT025 BKN120
     FM280500 15007KT P6SM VCTS SCT080CB BKN120
     FM280900 15008KT P6SM BKN080
     FM281200 07004KT P6SM BKN200=

USA.gov is the U.S. government's official web portal to all federal, state and local government web resources and services.